sensor_id;sensor_type;location;lat;lon;timestamp;pressure;altitude;pressure_sealevel;temperature;humidity
59417;BME280;45222;52.458;20.914;2023-09-19T00:02:28;100014.10;;;17.16;78.57
59417;BME280;45222;52.458;20.914;2023-09-19T00:06:12;100014.02;;;17.12;79.21
59417;BME280;45222;52.458;20.914;2023-09-19T00:09:59;100013.24;;;17.11;78.94
59417;BME280;45222;52.458;20.914;2023-09-19T00:13:44;100013.62;;;17.11;79.47
59417;BME280;45222;52.458;20.914;2023-09-19T00:17:33;100015.95;;;17.11;78.99
59417;BME280;45222;52.458;20.914;2023-09-19T00:21:18;100014.90;;;17.15;78.62
59417;BME280;45222;52.458;20.914;2023-09-19T00:25:04;100014.55;;;17.24;78.51
59417;BME280;45222;52.458;20.914;2023-09-19T00:28:49;100011.35;;;17.32;78.50
59417;BME280;45222;52.458;20.914;2023-09-19T00:32:36;100011.59;;;17.36;78.57
59417;BME280;45222;52.458;20.914;2023-09-19T00:36:21;100007.11;;;17.37;79.25
59417;BME280;45222;52.458;20.914;2023-09-19T00:40:06;100009.39;;;17.36;79.82
59417;BME280;45222;52.458;20.914;2023-09-19T00:43:55;100009.64;;;17.37;79.10
59417;BME280;45222;52.458;20.914;2023-09-19T00:47:39;100005.64;;;17.42;78.75
59417;BME280;45222;52.458;20.914;2023-09-19T00:51:24;99999.36;;;17.47;78.62
59417;BME280;45222;52.458;20.914;2023-09-19T00:55:10;100001.82;;;17.50;78.44
59417;BME280;45222;52.458;20.914;2023-09-19T00:58:54;99996.98;;;17.47;78.52
59417;BME280;45222;52.458;20.914;2023-09-19T01:02:39;99995.73;;;17.40;78.42
59417;BME280;45222;52.458;20.914;2023-09-19T01:06:23;99992.34;;;17.29;78.68
59417;BME280;45222;52.458;20.914;2023-09-19T01:10:08;99988.92;;;17.16;79.53
59417;BME280;45222;52.458;20.914;2023-09-19T01:13:56;99989.83;;;17.03;79.56
59417;BME280;45222;52.458;20.914;2023-09-19T01:17:42;99984.68;;;16.90;79.75
59417;BME280;45222;52.458;20.914;2023-09-19T01:21:31;99980.85;;;16.80;80.30
59417;BME280;45222;52.458;20.914;2023-09-19T01:25:31;99975.09;;;16.69;80.05
59417;BME280;45222;52.458;20.914;2023-09-19T01:29:21;99968.54;;;16.66;80.13
59417;BME280;45222;52.458;20.914;2023-09-19T01:33:13;99962.87;;;16.65;80.34
59417;BME280;45222;52.458;20.914;2023-09-19T01:36:58;99957.61;;;16.68;80.61
59417;BME280;45222;52.458;20.914;2023-09-19T01:40:42;99952.70;;;16.71;80.60
59417;BME280;45222;52.458;20.914;2023-09-19T01:44:31;99949.51;;;16.72;80.61
59417;BME280;45222;52.458;20.914;2023-09-19T01:48:21;99944.29;;;16.73;81.50
59417;BME280;45222;52.458;20.914;2023-09-19T01:52:11;99941.85;;;16.76;81.36
59417;BME280;45222;52.458;20.914;2023-09-19T01:55:57;99939.26;;;16.84;80.84
59417;BME280;45222;52.458;20.914;2023-09-19T01:59:43;99938.80;;;16.91;80.87
59417;BME280;45222;52.458;20.914;2023-09-19T02:03:29;99939.57;;;16.98;80.75
59417;BME280;45222;52.458;20.914;2023-09-19T02:07:14;99933.09;;;17.00;81.20
59417;BME280;45222;52.458;20.914;2023-09-19T02:10:59;99933.05;;;16.98;81.36
59417;BME280;45222;52.458;20.914;2023-09-19T02:14:43;99926.86;;;16.95;81.81
59417;BME280;45222;52.458;20.914;2023-09-19T02:18:27;99922.91;;;16.93;81.53
59417;BME280;45222;52.458;20.914;2023-09-19T02:22:12;99923.48;;;16.94;81.60
59417;BME280;45222;52.458;20.914;2023-09-19T02:25:56;99926.14;;;16.97;82.57
59417;BME280;45222;52.458;20.914;2023-09-19T02:29:43;99920.75;;;16.97;82.87
59417;BME280;45222;52.458;20.914;2023-09-19T02:33:28;99918.54;;;17.00;82.68
59417;BME280;45222;52.458;20.914;2023-09-19T02:37:16;99906.32;;;17.00;82.40
59417;BME280;45222;52.458;20.914;2023-09-19T02:41:00;99904.70;;;16.98;81.94
59417;BME280;45222;52.458;20.914;2023-09-19T02:44:44;99904.96;;;16.97;81.96
59417;BME280;45222;52.458;20.914;2023-09-19T02:48:31;99906.27;;;16.96;81.73
59417;BME280;45222;52.458;20.914;2023-09-19T02:52:17;99900.29;;;16.97;81.92
59417;BME280;45222;52.458;20.914;2023-09-19T02:56:02;99898.45;;;16.97;82.20
59417;BME280;45222;52.458;20.914;2023-09-19T02:59:47;99894.48;;;16.98;81.85
59417;BME280;45222;52.458;20.914;2023-09-19T03:03:31;99895.90;;;16.98;81.83
59417;BME280;45222;52.458;20.914;2023-09-19T03:07:16;99898.26;;;16.98;81.67
59417;BME280;45222;52.458;20.914;2023-09-19T03:11:01;99896.77;;;17.00;81.48
59417;BME280;45222;52.458;20.914;2023-09-19T03:14:45;99898.52;;;17.06;81.23
59417;BME280;45222;52.458;20.914;2023-09-19T03:18:29;99889.23;;;17.09;81.26
59417;BME280;45222;52.458;20.914;2023-09-19T03:22:15;99884.03;;;17.07;81.06
59417;BME280;45222;52.458;20.914;2023-09-19T03:26:00;99881.30;;;17.01;80.90
59417;BME280;45222;52.458;20.914;2023-09-19T03:29:44;99881.59;;;16.91;80.77
59417;BME280;45222;52.458;20.914;2023-09-19T03:33:28;99875.66;;;16.80;81.32
59417;BME280;45222;52.458;20.914;2023-09-19T03:37:15;99869.04;;;16.66;81.30
59417;BME280;45222;52.458;20.914;2023-09-19T03:40:59;99867.92;;;16.53;81.51
59417;BME280;45222;52.458;20.914;2023-09-19T03:44:43;99864.06;;;16.41;81.88
59417;BME280;45222;52.458;20.914;2023-09-19T03:48:27;99863.88;;;16.32;82.07
59417;BME280;45222;52.458;20.914;2023-09-19T03:52:11;99867.23;;;16.24;82.03
59417;BME280;45222;52.458;20.914;2023-09-19T03:55:56;99871.36;;;16.20;82.10
59417;BME280;45222;52.458;20.914;2023-09-19T03:59:40;99871.55;;;16.19;82.32
59417;BME280;45222;52.458;20.914;2023-09-19T04:03:26;99865.06;;;16.22;82.61
59417;BME280;45222;52.458;20.914;2023-09-19T04:07:18;99861.54;;;16.28;82.23
59417;BME280;45222;52.458;20.914;2023-09-19T04:11:05;99859.23;;;16.32;82.30
59417;BME280;45222;52.458;20.914;2023-09-19T04:14:49;99851.55;;;16.34;82.32
59417;BME280;45222;52.458;20.914;2023-09-19T04:18:34;99852.02;;;16.39;82.29
59417;BME280;45222;52.458;20.914;2023-09-19T04:22:20;99849.05;;;16.45;82.29
59417;BME280;45222;52.458;20.914;2023-09-19T04:26:04;99845.54;;;16.51;82.04
59417;BME280;45222;52.458;20.914;2023-09-19T04:29:49;99843.41;;;16.53;82.12
59417;BME280;45222;52.458;20.914;2023-09-19T04:33:34;99834.86;;;16.58;82.32
59417;BME280;45222;52.458;20.914;2023-09-19T04:37:18;99830.42;;;16.62;82.46
59417;BME280;45222;52.458;20.914;2023-09-19T04:41:02;99829.70;;;16.62;82.42
59417;BME280;45222;52.458;20.914;2023-09-19T04:44:47;99831.40;;;16.63;82.37
59417;BME280;45222;52.458;20.914;2023-09-19T04:48:32;99827.97;;;16.63;82.30
59417;BME280;45222;52.458;20.914;2023-09-19T04:52:18;99829.59;;;16.61;82.45
59417;BME280;45222;52.458;20.914;2023-09-19T04:56:03;99827.48;;;16.63;82.63
59417;BME280;45222;52.458;20.914;2023-09-19T04:59:50;99824.45;;;16.65;82.73
59417;BME280;45222;52.458;20.914;2023-09-19T05:03:34;99831.52;;;16.73;82.87
59417;BME280;45222;52.458;20.914;2023-09-19T05:07:18;99827.77;;;16.82;82.84
59417;BME280;45222;52.458;20.914;2023-09-19T05:11:02;99820.44;;;16.92;82.78
59417;BME280;45222;52.458;20.914;2023-09-19T05:14:46;99824.48;;;17.04;83.03
59417;BME280;45222;52.458;20.914;2023-09-19T05:18:30;99820.66;;;17.17;82.73
59417;BME280;45222;52.458;20.914;2023-09-19T05:22:15;99822.14;;;17.34;82.57
59417;BME280;45222;52.458;20.914;2023-09-19T05:25:59;99823.22;;;17.53;82.20
59417;BME280;45222;52.458;20.914;2023-09-19T05:29:43;99823.67;;;17.72;81.88
59417;BME280;45222;52.458;20.914;2023-09-19T05:33:28;99828.81;;;17.90;81.56
59417;BME280;45222;52.458;20.914;2023-09-19T05:37:14;99838.42;;;18.06;81.02
59417;BME280;45222;52.458;20.914;2023-09-19T05:41:00;99843.82;;;18.18;80.92
59417;BME280;45222;52.458;20.914;2023-09-19T05:44:45;99849.73;;;18.29;80.71
59417;BME280;45222;52.458;20.914;2023-09-19T05:48:29;99843.02;;;18.41;80.49
59417;BME280;45222;52.458;20.914;2023-09-19T05:52:14;99836.05;;;18.55;80.39
59417;BME280;45222;52.458;20.914;2023-09-19T05:55:59;99829.07;;;18.64;79.89
59417;BME280;45222;52.458;20.914;2023-09-19T05:59:44;99827.89;;;18.75;79.39
59417;BME280;45222;52.458;20.914;2023-09-19T06:03:28;99828.98;;;18.85;78.88
59417;BME280;45222;52.458;20.914;2023-09-19T06:07:14;99832.90;;;18.94;78.42
59417;BME280;45222;52.458;20.914;2023-09-19T06:11:00;99838.17;;;18.99;78.09
59417;BME280;45222;52.458;20.914;2023-09-19T06:14:44;99832.46;;;19.00;77.44
59417;BME280;45222;52.458;20.914;2023-09-19T06:18:28;99829.81;;;19.01;77.03
59417;BME280;45222;52.458;20.914;2023-09-19T06:22:15;99834.30;;;19.06;76.77
59417;BME280;45222;52.458;20.914;2023-09-19T06:25:59;99833.70;;;19.14;76.53
59417;BME280;45222;52.458;20.914;2023-09-19T06:29:44;99829.92;;;19.26;76.26
59417;BME280;45222;52.458;20.914;2023-09-19T06:33:29;99828.44;;;19.46;76.23
59417;BME280;45222;52.458;20.914;2023-09-19T06:37:15;99835.96;;;19.69;75.41
59417;BME280;45222;52.458;20.914;2023-09-19T06:40:59;99843.37;;;19.86;74.57
59417;BME280;45222;52.458;20.914;2023-09-19T06:44:45;99845.21;;;20.03;74.20
59417;BME280;45222;52.458;20.914;2023-09-19T06:48:29;99851.66;;;20.18;73.45
59417;BME280;45222;52.458;20.914;2023-09-19T06:52:13;99851.58;;;20.35;73.07
59417;BME280;45222;52.458;20.914;2023-09-19T06:55:58;99854.85;;;20.49;72.25
59417;BME280;45222;52.458;20.914;2023-09-19T06:59:42;99857.27;;;20.59;71.69
59417;BME280;45222;52.458;20.914;2023-09-19T07:03:28;99852.86;;;20.69;71.19
59417;BME280;45222;52.458;20.914;2023-09-19T07:07:12;99859.02;;;20.86;70.91
59417;BME280;45222;52.458;20.914;2023-09-19T07:10:57;99853.36;;;20.99;70.68
59417;BME280;45222;52.458;20.914;2023-09-19T07:14:41;99863.90;;;21.06;69.71
59417;BME280;45222;52.458;20.914;2023-09-19T07:18:26;99864.14;;;21.11;70.00
59417;BME280;45222;52.458;20.914;2023-09-19T07:22:10;99869.98;;;21.21;69.66
59417;BME280;45222;52.458;20.914;2023-09-19T07:25:57;99879.13;;;21.32;69.35
59417;BME280;45222;52.458;20.914;2023-09-19T07:29:42;99879.08;;;21.38;68.89
59417;BME280;45222;52.458;20.914;2023-09-19T07:33:26;99881.77;;;21.38;68.84
59417;BME280;45222;52.458;20.914;2023-09-19T07:37:12;99890.23;;;21.32;68.75
59417;BME280;45222;52.458;20.914;2023-09-19T07:41:00;99893.55;;;21.24;69.06
59417;BME280;45222;52.458;20.914;2023-09-19T07:44:45;99893.94;;;21.14;69.10
59417;BME280;45222;52.458;20.914;2023-09-19T07:48:33;99906.34;;;21.03;69.39
59417;BME280;45222;52.458;20.914;2023-09-19T07:52:17;99910.12;;;20.94;69.42
59417;BME280;45222;52.458;20.914;2023-09-19T07:56:03;99916.04;;;20.81;69.74
59417;BME280;45222;52.458;20.914;2023-09-19T07:59:47;99916.75;;;20.72;69.97
59417;BME280;45222;52.458;20.914;2023-09-19T08:03:31;99922.77;;;20.62;70.22
59417;BME280;45222;52.458;20.914;2023-09-19T08:07:15;99925.41;;;20.53;70.41
59417;BME280;45222;52.458;20.914;2023-09-19T08:11:00;99920.73;;;20.42;70.71
59417;BME280;45222;52.458;20.914;2023-09-19T08:14:45;99926.71;;;20.32;71.02
59417;BME280;45222;52.458;20.914;2023-09-19T08:18:30;99935.20;;;20.27;71.20
59417;BME280;45222;52.458;20.914;2023-09-19T08:22:14;99933.45;;;20.22;71.63
59417;BME280;45222;52.458;20.914;2023-09-19T08:26:00;99928.05;;;20.18;71.79
59417;BME280;45222;52.458;20.914;2023-09-19T08:29:50;99929.27;;;20.13;72.10
59417;BME280;45222;52.458;20.914;2023-09-19T08:33:35;99927.33;;;20.07;72.33
59417;BME280;45222;52.458;20.914;2023-09-19T08:37:20;99928.69;;;20.00;72.55
59417;BME280;45222;52.458;20.914;2023-09-19T08:41:05;99938.36;;;19.95;73.18
59417;BME280;45222;52.458;20.914;2023-09-19T08:44:50;99943.86;;;19.90;74.09
59417;BME280;45222;52.458;20.914;2023-09-19T08:48:34;99954.92;;;19.80;74.81
59417;BME280;45222;52.458;20.914;2023-09-19T08:52:27;99959.38;;;19.63;75.27
59417;BME280;45222;52.458;20.914;2023-09-19T08:56:13;99961.88;;;19.48;75.41
59417;BME280;45222;52.458;20.914;2023-09-19T09:00:00;99972.49;;;19.36;76.34
59417;BME280;45222;52.458;20.914;2023-09-19T09:03:45;99979.95;;;19.25;77.59
59417;BME280;45222;52.458;20.914;2023-09-19T09:07:31;99985.98;;;19.11;78.70
59417;BME280;45222;52.458;20.914;2023-09-19T09:11:18;99986.32;;;18.96;79.52
59417;BME280;45222;52.458;20.914;2023-09-19T09:15:03;99977.47;;;18.91;79.80
59417;BME280;45222;52.458;20.914;2023-09-19T09:18:47;99963.10;;;18.92;80.17
59417;BME280;45222;52.458;20.914;2023-09-19T09:22:36;99967.16;;;18.95;80.00
59417;BME280;45222;52.458;20.914;2023-09-19T09:26:41;99971.51;;;19.05;80.23
59417;BME280;45222;52.458;20.914;2023-09-19T09:30:33;99976.61;;;19.07;80.44
59417;BME280;45222;52.458;20.914;2023-09-19T09:34:17;99986.42;;;19.01;80.76
59417;BME280;45222;52.458;20.914;2023-09-19T09:38:04;99993.23;;;19.02;81.14
59417;BME280;45222;52.458;20.914;2023-09-19T09:41:52;99997.16;;;19.02;81.37
59417;BME280;45222;52.458;20.914;2023-09-19T09:45:36;99996.89;;;19.01;81.27
59417;BME280;45222;52.458;20.914;2023-09-19T09:49:23;100000.08;;;18.94;81.84
59417;BME280;45222;52.458;20.914;2023-09-19T09:53:20;100004.71;;;18.90;82.55
59417;BME280;45222;52.458;20.914;2023-09-19T09:57:05;100013.70;;;18.92;82.94
59417;BME280;45222;52.458;20.914;2023-09-19T10:01:01;100020.42;;;18.92;83.63
59417;BME280;45222;52.458;20.914;2023-09-19T10:04:52;100023.05;;;18.95;83.73
59417;BME280;45222;52.458;20.914;2023-09-19T10:08:45;100014.30;;;18.98;83.90
59417;BME280;45222;52.458;20.914;2023-09-19T10:12:45;100006.83;;;19.09;83.45
59417;BME280;45222;52.458;20.914;2023-09-19T10:16:35;99998.48;;;19.22;83.35
59417;BME280;45222;52.458;20.914;2023-09-19T10:20:23;99996.36;;;19.34;83.15
59417;BME280;45222;52.458;20.914;2023-09-19T10:24:21;100002.48;;;19.39;83.50
59417;BME280;45222;52.458;20.914;2023-09-19T10:28:08;100002.80;;;19.46;83.48
59417;BME280;45222;52.458;20.914;2023-09-19T10:31:54;100003.09;;;19.52;83.22
59417;BME280;45222;52.458;20.914;2023-09-19T10:35:39;100001.77;;;19.61;83.04
59417;BME280;45222;52.458;20.914;2023-09-19T10:39:25;99996.26;;;19.72;82.43
59417;BME280;45222;52.458;20.914;2023-09-19T10:43:12;100001.35;;;19.85;82.05
59417;BME280;45222;52.458;20.914;2023-09-19T10:46:56;100005.69;;;19.97;81.91
59417;BME280;45222;52.458;20.914;2023-09-19T10:50:44;100014.64;;;20.00;81.82
59417;BME280;45222;52.458;20.914;2023-09-19T10:54:31;100026.11;;;19.93;81.38
59417;BME280;45222;52.458;20.914;2023-09-19T10:58:29;100036.02;;;19.85;81.74
59417;BME280;45222;52.458;20.914;2023-09-19T11:02:16;100044.11;;;19.79;82.43
59417;BME280;45222;52.458;20.914;2023-09-19T11:06:04;100045.37;;;19.77;83.14
59417;BME280;45222;52.458;20.914;2023-09-19T11:09:50;100040.08;;;19.76;82.95
59417;BME280;45222;52.458;20.914;2023-09-19T11:13:37;100037.63;;;19.83;82.81
59417;BME280;45222;52.458;20.914;2023-09-19T11:17:31;100041.91;;;19.92;82.38
59417;BME280;45222;52.458;20.914;2023-09-19T11:29:26;100025.02;;;20.18;82.26
59417;BME280;45222;52.458;20.914;2023-09-19T11:33:16;100029.23;;;20.21;81.34
59417;BME280;45222;52.458;20.914;2023-09-19T11:37:04;100030.83;;;20.23;81.22
59417;BME280;45222;52.458;20.914;2023-09-19T11:49:25;100039.88;;;20.35;81.86
59417;BME280;45222;52.458;20.914;2023-09-19T11:53:13;100043.85;;;20.37;80.93
59417;BME280;45222;52.458;20.914;2023-09-19T11:57:00;100038.05;;;20.33;80.90
59417;BME280;45222;52.458;20.914;2023-09-19T12:00:46;100044.44;;;20.28;80.84
59417;BME280;45222;52.458;20.914;2023-09-19T12:04:38;100046.38;;;20.25;81.33
59417;BME280;45222;52.458;20.914;2023-09-19T12:08:23;100051.46;;;20.25;81.45
59417;BME280;45222;52.458;20.914;2023-09-19T12:12:07;100052.80;;;20.26;80.89
59417;BME280;45222;52.458;20.914;2023-09-19T12:15:52;100054.55;;;20.24;81.32
59417;BME280;45222;52.458;20.914;2023-09-19T12:19:36;100055.42;;;20.25;81.16
59417;BME280;45222;52.458;20.914;2023-09-19T12:23:21;100062.30;;;20.29;80.78
59417;BME280;45222;52.458;20.914;2023-09-19T12:27:06;100069.23;;;20.26;80.90
59417;BME280;45222;52.458;20.914;2023-09-19T12:30:50;100067.21;;;20.22;81.10
59417;BME280;45222;52.458;20.914;2023-09-19T12:34:39;100069.56;;;20.21;81.41
59417;BME280;45222;52.458;20.914;2023-09-19T12:38:26;100069.58;;;20.20;81.52
59417;BME280;45222;52.458;20.914;2023-09-19T12:42:12;100070.89;;;20.20;81.85
59417;BME280;45222;52.458;20.914;2023-09-19T12:45:57;100066.00;;;20.26;81.85
59417;BME280;45222;52.458;20.914;2023-09-19T12:50:05;100068.16;;;20.32;81.79
59417;BME280;45222;52.458;20.914;2023-09-19T12:53:56;100067.48;;;20.37;81.61
59417;BME280;45222;52.458;20.914;2023-09-19T12:57:40;100067.79;;;20.42;81.57
59417;BME280;45222;52.458;20.914;2023-09-19T13:01:25;100066.72;;;20.47;81.56
59417;BME280;45222;52.458;20.914;2023-09-19T13:05:10;100070.16;;;20.51;81.61
59417;BME280;45222;52.458;20.914;2023-09-19T13:09:08;100071.75;;;20.55;81.24
59417;BME280;45222;52.458;20.914;2023-09-19T13:12:53;100068.98;;;20.61;81.56
59417;BME280;45222;52.458;20.914;2023-09-19T13:20:37;100062.17;;;20.85;81.06
59417;BME280;45222;52.458;20.914;2023-09-19T13:24:27;100061.35;;;20.92;80.95
59417;BME280;45222;52.458;20.914;2023-09-19T13:28:13;100065.02;;;20.96;80.88
59417;BME280;45222;52.458;20.914;2023-09-19T13:31:57;100069.91;;;20.97;80.96
59417;BME280;45222;52.458;20.914;2023-09-19T13:35:41;100074.05;;;20.99;81.40
59417;BME280;45222;52.458;20.914;2023-09-19T13:39:25;100067.67;;;21.00;81.03
59417;BME280;45222;52.458;20.914;2023-09-19T13:43:09;100067.59;;;20.97;80.80
59417;BME280;45222;52.458;20.914;2023-09-19T13:46:54;100071.61;;;20.97;81.12
59417;BME280;45222;52.458;20.914;2023-09-19T13:50:40;100070.45;;;20.93;81.23
59417;BME280;45222;52.458;20.914;2023-09-19T13:54:25;100074.05;;;20.86;81.12
59417;BME280;45222;52.458;20.914;2023-09-19T13:58:09;100074.81;;;20.84;81.22
59417;BME280;45222;52.458;20.914;2023-09-19T14:01:55;100081.45;;;20.78;80.97
59417;BME280;45222;52.458;20.914;2023-09-19T14:05:40;100086.80;;;20.69;80.57
59417;BME280;45222;52.458;20.914;2023-09-19T14:09:25;100089.73;;;20.56;79.67
59417;BME280;45222;52.458;20.914;2023-09-19T14:13:10;100084.75;;;20.41;79.32
59417;BME280;45222;52.458;20.914;2023-09-19T14:16:56;100080.52;;;20.29;79.41
59417;BME280;45222;52.458;20.914;2023-09-19T14:20:44;100080.05;;;20.24;79.44
59417;BME280;45222;52.458;20.914;2023-09-19T14:24:28;100081.88;;;20.28;79.61
59417;BME280;45222;52.458;20.914;2023-09-19T14:28:12;100080.17;;;20.38;79.50
59417;BME280;45222;52.458;20.914;2023-09-19T14:31:56;100089.59;;;20.48;79.51
59417;BME280;45222;52.458;20.914;2023-09-19T14:35:41;100090.05;;;20.56;78.94
59417;BME280;45222;52.458;20.914;2023-09-19T14:39:25;100087.94;;;20.59;78.77
59417;BME280;45222;52.458;20.914;2023-09-19T14:43:10;100078.02;;;20.63;78.57
59417;BME280;45222;52.458;20.914;2023-09-19T14:46:54;100080.38;;;20.67;78.40
59417;BME280;45222;52.458;20.914;2023-09-19T14:50:39;100091.81;;;20.66;77.94
59417;BME280;45222;52.458;20.914;2023-09-19T14:54:24;100100.30;;;20.64;77.94
59417;BME280;45222;52.458;20.914;2023-09-19T14:58:08;100097.20;;;20.64;78.10
59417;BME280;45222;52.458;20.914;2023-09-19T15:01:52;100095.15;;;20.65;77.78
59417;BME280;45222;52.458;20.914;2023-09-19T15:05:36;100090.59;;;20.66;77.64
59417;BME280;45222;52.458;20.914;2023-09-19T15:09:21;100089.58;;;20.69;77.46
59417;BME280;45222;52.458;20.914;2023-09-19T15:13:07;100092.50;;;20.74;77.48
59417;BME280;45222;52.458;20.914;2023-09-19T15:16:52;100098.40;;;20.77;77.36
59417;BME280;45222;52.458;20.914;2023-09-19T15:20:36;100102.42;;;20.78;77.32
59417;BME280;45222;52.458;20.914;2023-09-19T15:24:26;100105.69;;;20.82;77.11
59417;BME280;45222;52.458;20.914;2023-09-19T15:28:10;100110.72;;;20.96;77.00
59417;BME280;45222;52.458;20.914;2023-09-19T15:31:55;100108.66;;;21.02;76.51
59417;BME280;45222;52.458;20.914;2023-09-19T15:35:45;100114.63;;;21.04;76.29
59417;BME280;45222;52.458;20.914;2023-09-19T15:39:30;100116.36;;;21.05;76.08
59417;BME280;45222;52.458;20.914;2023-09-19T15:43:16;100114.16;;;21.07;75.95
59417;BME280;45222;52.458;20.914;2023-09-19T15:47:01;100117.70;;;21.15;75.71
59417;BME280;45222;52.458;20.914;2023-09-19T15:50:45;100125.32;;;21.26;75.28
59417;BME280;45222;52.458;20.914;2023-09-19T15:54:29;100122.16;;;21.33;75.13
59417;BME280;45222;52.458;20.914;2023-09-19T15:58:16;100125.86;;;21.37;74.92
59417;BME280;45222;52.458;20.914;2023-09-19T16:02:01;100130.98;;;21.40;74.73
59417;BME280;45222;52.458;20.914;2023-09-19T16:05:46;100134.75;;;21.39;74.60
59417;BME280;45222;52.458;20.914;2023-09-19T16:09:30;100138.63;;;21.33;74.49
59417;BME280;45222;52.458;20.914;2023-09-19T16:13:14;100143.48;;;21.22;74.30
59417;BME280;45222;52.458;20.914;2023-09-19T16:16:58;100148.14;;;21.07;74.37
59417;BME280;45222;52.458;20.914;2023-09-19T16:20:43;100155.45;;;20.89;74.60
59417;BME280;45222;52.458;20.914;2023-09-19T16:24:27;100156.80;;;20.69;74.95
59417;BME280;45222;52.458;20.914;2023-09-19T16:28:12;100158.34;;;20.52;75.28
59417;BME280;45222;52.458;20.914;2023-09-19T16:31:56;100161.25;;;20.38;75.78
59417;BME280;45222;52.458;20.914;2023-09-19T16:35:41;100166.67;;;20.31;76.14
59417;BME280;45222;52.458;20.914;2023-09-19T16:39:25;100171.92;;;20.19;76.42
59417;BME280;45222;52.458;20.914;2023-09-19T16:43:10;100172.35;;;20.04;76.73
59417;BME280;45222;52.458;20.914;2023-09-19T16:46:56;100175.52;;;19.91;77.15
59417;BME280;45222;52.458;20.914;2023-09-19T16:50:40;100183.63;;;19.81;77.45
59417;BME280;45222;52.458;20.914;2023-09-19T16:54:25;100185.32;;;19.72;77.76
59417;BME280;45222;52.458;20.914;2023-09-19T16:58:09;100190.06;;;19.63;77.87
59417;BME280;45222;52.458;20.914;2023-09-19T17:01:53;100195.16;;;19.54;78.00
59417;BME280;45222;52.458;20.914;2023-09-19T17:05:40;100201.61;;;19.42;78.21
59417;BME280;45222;52.458;20.914;2023-09-19T17:09:24;100205.77;;;19.28;78.42
59417;BME280;45222;52.458;20.914;2023-09-19T17:13:09;100205.09;;;19.15;78.63
59417;BME280;45222;52.458;20.914;2023-09-19T17:16:54;100209.17;;;18.99;78.88
59417;BME280;45222;52.458;20.914;2023-09-19T17:20:41;100207.23;;;18.82;79.43
59417;BME280;45222;52.458;20.914;2023-09-19T17:24:25;100216.19;;;18.65;80.05
59417;BME280;45222;52.458;20.914;2023-09-19T17:28:11;100218.02;;;18.52;80.23
59417;BME280;45222;52.458;20.914;2023-09-19T17:31:56;100221.97;;;18.42;80.36
59417;BME280;45222;52.458;20.914;2023-09-19T17:35:40;100228.11;;;18.32;80.52
59417;BME280;45222;52.458;20.914;2023-09-19T17:39:26;100229.22;;;18.28;80.66
59417;BME280;45222;52.458;20.914;2023-09-19T17:43:11;100234.26;;;18.23;80.83
59417;BME280;45222;52.458;20.914;2023-09-19T17:46:58;100238.67;;;18.22;80.95
59417;BME280;45222;52.458;20.914;2023-09-19T17:50:42;100245.98;;;18.21;80.88
59417;BME280;45222;52.458;20.914;2023-09-19T17:54:26;100256.85;;;18.18;80.76
59417;BME280;45222;52.458;20.914;2023-09-19T17:58:10;100258.48;;;18.14;80.68
59417;BME280;45222;52.458;20.914;2023-09-19T18:01:56;100265.77;;;18.05;80.81
59417;BME280;45222;52.458;20.914;2023-09-19T18:05:43;100269.92;;;17.94;80.67
59417;BME280;45222;52.458;20.914;2023-09-19T18:09:27;100276.84;;;17.80;80.79
59417;BME280;45222;52.458;20.914;2023-09-19T18:13:12;100284.39;;;17.61;81.12
59417;BME280;45222;52.458;20.914;2023-09-19T18:16:58;100290.55;;;17.45;81.11
59417;BME280;45222;52.458;20.914;2023-09-19T18:20:42;100295.57;;;17.29;81.10
59417;BME280;45222;52.458;20.914;2023-09-19T18:24:27;100298.27;;;17.12;80.84
59417;BME280;45222;52.458;20.914;2023-09-19T18:28:11;100297.70;;;16.96;80.66
59417;BME280;45222;52.458;20.914;2023-09-19T18:31:56;100306.71;;;16.81;80.41
59417;BME280;45222;52.458;20.914;2023-09-19T18:35:41;100304.45;;;16.66;80.40
59417;BME280;45222;52.458;20.914;2023-09-19T18:39:25;100310.76;;;16.53;80.44
59417;BME280;45222;52.458;20.914;2023-09-19T18:43:09;100314.25;;;16.43;80.44
59417;BME280;45222;52.458;20.914;2023-09-19T18:46:54;100315.77;;;16.34;80.43
59417;BME280;45222;52.458;20.914;2023-09-19T18:50:39;100318.65;;;16.26;80.33
59417;BME280;45222;52.458;20.914;2023-09-19T18:54:24;100321.81;;;16.22;80.25
59417;BME280;45222;52.458;20.914;2023-09-19T18:58:08;100327.95;;;16.19;79.98
59417;BME280;45222;52.458;20.914;2023-09-19T19:01:53;100327.02;;;16.17;80.05
59417;BME280;45222;52.458;20.914;2023-09-19T19:05:37;100326.65;;;16.18;79.99
59417;BME280;45222;52.458;20.914;2023-09-19T19:09:21;100326.23;;;16.16;79.79
59417;BME280;45222;52.458;20.914;2023-09-19T19:13:05;100324.50;;;16.10;79.63
59417;BME280;45222;52.458;20.914;2023-09-19T19:16:49;100328.21;;;16.01;79.75
59417;BME280;45222;52.458;20.914;2023-09-19T19:20:33;100331.48;;;15.90;79.62
59417;BME280;45222;52.458;20.914;2023-09-19T19:24:18;100334.15;;;15.77;79.49
59417;BME280;45222;52.458;20.914;2023-09-19T19:28:04;100336.59;;;15.61;79.34
59417;BME280;45222;52.458;20.914;2023-09-19T19:31:49;100336.15;;;15.41;79.32
59417;BME280;45222;52.458;20.914;2023-09-19T19:35:35;100339.46;;;15.21;79.43
59417;BME280;45222;52.458;20.914;2023-09-19T19:39:22;100339.31;;;15.05;79.51
59417;BME280;45222;52.458;20.914;2023-09-19T19:43:07;100342.02;;;14.89;79.74
59417;BME280;45222;52.458;20.914;2023-09-19T19:46:52;100337.41;;;14.74;80.00
59417;BME280;45222;52.458;20.914;2023-09-19T19:50:38;100339.23;;;14.63;80.39
59417;BME280;45222;52.458;20.914;2023-09-19T19:54:22;100337.71;;;14.56;80.59